Latest Observation

42 Stations

15 Minute Data | America/Los_Angeles
as of 8/31/26 6:27 PM PDT
Station Date Time Temp (°F) RH (%) Dew Pt (°F) Wind Spd (mph) Wind Dir (°) Wind Gust (mph) Latest Rain (In) Daily Rain (In) Daily Min Temp (°F) Daily Max Temp (°F) Daily Max Wind (mph)
Elk Mt. Farm 8/13/26 1500 85.6   7.4 - - - - - - - 51.4   1.1 85.6   7.4 -
Upper Lake 8/31/26 1815 73.8   12.2 48   19 53.0   2.8 6.0 WNW | 296 15.2   4.2 0.00 0.00 45.4   0.6 86.7   4.6 17.2   3.8
Scotts Valley 8/31/26 1815 77.5   8.0 44   14 53.8   3.2 3.7 W | 264 11.5   0.0 0.00 0.00 41.2   0.7 85.4   8.3 15.2   3.7
Scotts Valley-South (Bella Vista) 8/31/26 1815 75.4   8.8 43   14 51.4   2.6 5.1 WSW | 251 9.6   1.6 0.00 0.00 46.0   0.0 83.4   7.9 16.0   2.2
Kelseyville 8/31/26 1815 75.6   9.5 49   16 54.9   2.4 6.5 SW | 222 13.2   1.1 0.00 0.00 46.4   1.1 83.6   7.3 16.2   0.2
Kelseyville Remote 8/31/26 1815 76.8   9.4 39   15 50.1   4.7 - - - 0.00 0.00 47.6   1.1 84.3   7.2 -
Kelseyville (Clark Drive) 8/31/26 1815 77.4   10.4 - - - - - 0.00 0.00 44.7   1.1 86.9   6.9 -
Kelsey Bench (Oaklea) 8/31/26 1815 74.3   9.5 45   17 51.7   4.5 7.3 WSW | 243 13.9   0.8 0.00 0.00 51.0   0.3 82.3   7.6 16.7   3.6
Smith Lane (Kelseyville-South) 8/31/26 1815 75.6   10.1 45   16 53.0   3.2 7.6 SW | 234 13.8   2.8 0.00 0.00 44.4   0.7 84.0   8.5 16.6   3.9
Bell Hill-West 8/31/26 1815 75.1   9.3 53   19 56.8   3.5 7.7 SW | 236 13.2   0.3 0.00 0.00 47.8   0.7 82.4   6.9 18.8   4.0
High Valley Ridgeline (Brassfield) 8/31/26 1815 72.4   10.9 47   21 51.1   5.8 12.8 WSW | 244 19.8   2.4 0.00 0.00 61.0   0.0 81.2   6.4 20.3   2.9
Wight Way (Adobe Creek) 8/31/26 1800 81.6   12.5 38   17 53.5   5.1 2.1 SSW | 209 8.5   1.4 0.00 0.00 44.3   0.9 88.2   9.6 17.3   4.3
Ridgeline Top (Brassfield) 8/31/26 1815 73.7   11.4 - - - - - - - 60.7   0.0 83.2   6.9 -
Ridgeline Low (Brassfield) 8/31/26 1815 74.5   10.5 - - - - - - - 58.0   2.9 82.3   6.5 -
Long Valley (Shannon) 6/29/26 1400 84.9   4.6 25   1 44.9   3.2 2.9 ENE | 75 10.2   0.4 0.00 0.00 46.4   0.4 86.9   6.5 13.7   1.8
High Valley Winery 8/31/26 1815 74.2   11.5 44   22 50.7   8.2 10.7 WSW | 240 18.6   3.9 0.00 0.00 44.4   0.4 84.0   5.9 20.0   4.1
Round Mtn Rd. 8/31/26 1115 80.0   3.3 - - - - - - - 50.8   1.0 81.0   2.3 -
Circle O 8/31/26 1815 74.5   11.8 - - - - - - - 47.9   0.1 85.3   4.0 -
Robertsbridge Vineyards 8/31/26 1815 74.7   11.5 44   19 51.3   4.9 - - - - - 46.6   0.6 84.5   7.5 -
Urgency Vineyard 8/31/26 1815 75.2   9.2 41   16 49.6   5.5 2.9 WSW | 238 6.7   0.8 0.00 0.00 43.8   0.5 85.1   6.1 12.1   0.7
Red Hills (Beckstoffer) 8/31/26 1815 75.1   10.0 42   18 50.6   5.6 - - - 0.00 0.00 40.1   1.2 85.9   5.7 -
Winters (Shannon) 8/31/26 1815 73.0   12.1 41   19 47.7   5.8 4.4 WSW | 240 10.2   5.4 0.00 0.00 39.4   1.9 84.1   5.2 15.6   2.2
Secret Pond (Shannon) 8/31/26 1815 72.4   10.1 42   17 48.2   5.0 4.9 W | 281 10.0   1.9 0.00 0.00 43.0   2.1 82.4   6.1 12.6   0.5
Rolling Knolls (Shannon) 8/31/26 1815 77.0   9.0 36   14 48.4   4.7 3.4 W | 273 8.7   0.6 0.00 0.00 43.4   1.3 84.1   7.0 12.2   3.4
Lower Lake 8/31/26 1815 75.6   9.4 40   16 50.0   5.1 6.7 W | 280 11.5   2.3 0.00 0.00 51.3   0.6 83.3   6.6 17.6   4.8
Adamson Ranch 8/31/26 1815 76.6   8.8 40   11 50.2   0.9 6.3 SE | 130 12.7   2.0 0.00 0.00 45.7   1.1 84.5   7.0 15.8   0.4
Middletown (Diamond D) 8/31/26 1815 70.6   9.9 56   16 54.0   0.0 11.1 N | 355 21.2   6.1 0.00 0.00 44.1   1.5 81.9   7.6 23.6   5.4
Middletown-West (Domaine Helena) 8/31/26 1815 70.1   9.1 54   16 52.9   1.4 15.2 SSW | 213 22.4   2.3 0.00 0.00 41.6   1.8 83.2   7.0 24.6   2.8
Middletown-South 8/31/26 1815 70.2   10.2 52   17 51.8   1.2 7.0 WSW | 244 15.6   1.5 0.00 0.00 45.2   2.2 82.5   7.2 19.6   2.3
Jim Davis (Langtry) 8/31/26 1815 74.8   9.2 44   9 51.5   2.1 5.4 SE | 127 10.2   2.8 0.00 0.00 51.6   1.6 80.6   9.6 19.4   3.1
Napa Valley Basin 8/31/26 1815 76.2   10.8 43   13 52.1   0.1 7.1 WSW | 246 11.9   0.2 0.00 0.00 43.3   0.3 81.8   10.6 17.8   3.4
Lower Bohn 8/31/26 1815 75.8   11.1 43   13 51.6   0.2 5.2 SSW | 195 10.0   1.6 0.00 0.00 42.6   0.4 81.9   10.1 20.0   5.3
Upper Bohn-North 8/31/26 1815 74.8   10.7 41   13 49.9   0.4 5.3 S | 181 11.3   3.8 0.00 0.00 48.5   1.7 82.6   9.8 14.6   0.7
Snell Peak Blk#9 8/31/26 1815 72.6   11.4 44   15 49.5   1.2 5.9 SSW | 199 12.4   3.1 0.00 0.00 51.6   2.1 80.7   10.0 14.4   1.2
Coyote Lake West 8/31/26 1815 74.1   11.2 48   14 53.2   0.6 6.9 SSW | 204 14.2   2.4 0.00 0.00 47.8   3.2 80.3   10.2 17.5   3.2
Coyote Lake Northeast 8/31/26 1815 74.7   11.2 46   12 52.7   2.2 - - - - - 52.2   0.3 82.0   9.6 -
Coyote Lake East 8/31/26 1815 75.3   11.3 44   13 52.0   0.5 - - - - - 44.7   0.3 82.0   9.6 -
Morgan Valley 8/31/26 1815 70.8   10.4 49   17 51.0   1.8 6.8 SE | 145 11.4   0.4 0.00 0.00 60.2   3.3 76.8   9.0 16.4   1.9
Mine Pit North 8/31/26 1815 74.1   8.8 45   16 51.5   3.8 10.3 S | 190 16.0   0.0 - - 54.9   2.8 81.2   10.0 19.0   0.0
Mine Pit South 8/31/26 1815 74.4   10.1 38   15 47.4   4.9 8.4 SSW | 193 14.9   0.4 0.00 0.00 53.6   5.1 80.3   11.8 18.6   4.1
Cow Mountain 8/31/26 1815 60.9   10.3 - - 12.8 W | 268 18.2   1.8 0.00 0.00 59.8   4.0 72.9   7.3 27.6   2.9
Ukiah-SE (Ruddick) 8/31/26 1815 72.7   15.5 46   22 50.8   4.4 9.7 N | 359 15.4   9.3 0.00 0.00 47.0   2.3 81.7   12.4 18.5   1.1
Max     81.6 56 56.8 15.2 - 22.4 0.00 0.00 61.0 88.2 27.6
Avg     74.2 45 51.4 7.2 - 13.4 0.00 - - - -
Min     60.9 36 47.4 2.1 - 6.7 0.00 0.00 39.4 72.9 12.1